createdAt,value
2018-04-17T00:00:52.646Z,12.60
2018-04-17T00:03:20.956Z,12.60
2018-04-17T00:05:49.656Z,12.60
2018-04-17T00:08:18.573Z,12.60
2018-04-17T00:10:46.686Z,12.60
2018-04-17T00:13:14.787Z,12.60
2018-04-17T00:15:42.910Z,12.50
2018-04-17T00:18:12.182Z,12.50
2018-04-17T00:20:40.357Z,12.50
2018-04-17T00:23:08.562Z,12.50
2018-04-17T00:25:36.756Z,12.50
2018-04-17T00:28:05.507Z,12.40
2018-04-17T00:30:35.239Z,12.40
2018-04-17T00:33:03.349Z,12.40
2018-04-17T00:35:31.486Z,12.40
2018-04-17T00:37:59.618Z,12.40
2018-04-17T00:40:27.725Z,12.40
2018-04-17T00:42:55.827Z,12.40
2018-04-17T00:45:23.989Z,12.40
2018-04-17T00:47:52.234Z,12.40
2018-04-17T00:50:20.363Z,12.40
2018-04-17T00:52:48.492Z,12.40
2018-04-17T00:55:16.682Z,12.40
2018-04-17T00:57:49.618Z,12.30
2018-04-17T01:00:17.734Z,12.30
2018-04-17T01:02:45.867Z,12.30
2018-04-17T01:05:14.022Z,12.30
2018-04-17T01:07:42.156Z,12.30
2018-04-17T01:10:10.397Z,12.30
2018-04-17T01:12:38.573Z,12.30
2018-04-17T01:15:06.722Z,12.30
2018-04-17T01:17:34.846Z,12.30
2018-04-17T01:20:02.943Z,12.20
2018-04-17T01:22:32.888Z,12.20
2018-04-17T01:25:01.003Z,12.30
2018-04-17T01:27:29.166Z,12.20
2018-04-17T01:29:57.306Z,12.20
2018-04-17T01:32:25.774Z,12.20
2018-04-17T01:34:53.934Z,12.20
2018-04-17T01:37:22.046Z,12.20
2018-04-17T01:39:50.253Z,12.20
2018-04-17T01:42:18.347Z,12.30
2018-04-17T01:44:46.916Z,12.30
2018-04-17T01:47:15.048Z,12.30
2018-04-17T01:49:43.277Z,12.30
2018-04-17T01:52:11.453Z,12.20
2018-04-17T01:54:40.073Z,12.30
2018-04-17T01:57:08.206Z,12.20
2018-04-17T01:59:36.342Z,12.20
2018-04-17T02:02:04.951Z,12.20
2018-04-17T02:04:33.063Z,12.20
2018-04-17T02:07:01.195Z,12.10
2018-04-17T02:09:29.295Z,12.10
2018-04-17T02:11:57.420Z,12.00
2018-04-17T02:14:25.595Z,12.00
2018-04-17T02:16:53.711Z,12.00
2018-04-17T02:19:21.819Z,12.00
2018-04-17T02:21:49.946Z,11.90
2018-04-17T02:24:18.069Z,11.90
2018-04-17T02:26:46.177Z,11.90
2018-04-17T02:29:14.372Z,11.80
2018-04-17T02:31:42.537Z,11.80
2018-04-17T02:34:11.427Z,11.80
2018-04-17T02:36:39.545Z,11.80
2018-04-17T02:39:07.665Z,11.70
2018-04-17T02:41:36.401Z,11.70
2018-04-17T02:44:04.528Z,11.70
2018-04-17T02:46:32.669Z,11.70
2018-04-17T02:49:00.764Z,11.60
2018-04-17T02:51:28.856Z,11.60
2018-04-17T02:53:56.982Z,11.60
2018-04-17T02:56:26.020Z,11.60
2018-04-17T02:58:55.028Z,11.50
2018-04-17T03:01:23.471Z,11.50
2018-04-17T03:03:51.619Z,11.50
2018-04-17T03:06:20.718Z,11.40
2018-04-17T03:08:48.897Z,11.40
2018-04-17T03:11:17.023Z,11.40
2018-04-17T03:13:47.300Z,11.40
2018-04-17T03:25:55.517Z,11.00
2018-04-17T03:28:23.584Z,11.00
2018-04-17T03:30:51.712Z,10.90
2018-04-17T03:33:19.992Z,10.90
2018-04-17T03:35:48.204Z,10.90
2018-04-17T03:38:16.783Z,10.90
2018-04-17T03:40:44.903Z,10.90
2018-04-17T03:43:13.028Z,10.90
2018-04-17T03:45:41.734Z,10.80
2018-04-17T03:48:10.098Z,10.80
2018-04-17T04:03:33.278Z,9.90
2018-04-17T04:06:01.470Z,9.90
2018-04-17T04:08:31.184Z,9.80
2018-04-17T04:10:59.319Z,9.80
2018-04-17T04:13:27.428Z,9.80
2018-04-17T04:15:55.558Z,9.80
2018-04-17T04:18:42.166Z,9.70
2018-04-17T04:21:27.955Z,9.70
2018-04-17T04:24:14.240Z,9.70
2018-04-17T04:26:42.358Z,9.60
2018-04-17T04:29:10.473Z,9.60
2018-04-17T04:31:38.611Z,9.50
2018-04-17T04:34:06.721Z,9.50
2018-04-17T04:36:34.823Z,9.40
2018-04-17T04:39:02.930Z,9.40
2018-04-17T04:41:31.023Z,9.30
2018-04-17T04:43:59.809Z,9.30
2018-04-17T04:46:29.371Z,9.20
2018-04-17T04:48:58.892Z,9.20
2018-04-17T04:51:27.043Z,9.10
2018-04-17T04:53:55.145Z,9.10
2018-04-17T04:56:23.329Z,9.00
2018-04-17T04:58:51.842Z,9.10
2018-04-17T05:01:20.576Z,9.10
2018-04-17T05:03:48.667Z,9.20
2018-04-17T05:06:16.804Z,9.20
2018-04-17T05:08:45.149Z,9.30
2018-04-17T05:11:13.290Z,9.40
2018-04-17T05:13:41.450Z,9.50
2018-04-17T05:16:09.543Z,9.60
2018-04-17T05:18:37.650Z,9.70
2018-04-17T05:21:05.757Z,9.80
2018-04-17T05:23:33.898Z,10.00
2018-04-17T05:26:01.987Z,10.10
2018-04-17T05:28:30.111Z,10.20
2018-04-17T05:31:01.054Z,10.30
2018-04-17T05:33:29.164Z,10.40
2018-04-17T05:35:57.299Z,10.50
2018-04-17T05:38:26.211Z,10.50
2018-04-17T05:40:54.370Z,10.60
2018-04-17T05:43:22.831Z,10.60
2018-04-17T05:45:51.392Z,10.60
2018-04-17T05:48:19.572Z,10.70
2018-04-17T05:50:47.706Z,10.80
2018-04-17T05:53:15.886Z,10.80
2018-04-17T05:55:44.053Z,10.90
2018-04-17T05:58:12.123Z,10.90
2018-04-17T06:00:40.239Z,11.00
2018-04-17T06:03:08.389Z,11.00
2018-04-17T06:05:37.590Z,11.10
2018-04-17T06:08:05.750Z,11.20
2018-04-17T06:10:33.877Z,11.20
2018-04-17T06:13:02.027Z,11.30
2018-04-17T06:15:30.136Z,11.30
2018-04-17T06:17:59.013Z,11.40
2018-04-17T06:20:27.130Z,11.50
2018-04-17T06:22:55.263Z,11.50
2018-04-17T06:25:23.411Z,11.60
2018-04-17T06:27:51.555Z,11.70
2018-04-17T06:30:20.254Z,11.70
2018-04-17T06:32:48.470Z,11.80
2018-04-17T06:35:17.363Z,11.90
2018-04-17T06:37:45.546Z,12.00
2018-04-17T06:40:13.655Z,12.00
2018-04-17T06:42:41.819Z,12.10
2018-04-17T06:45:09.910Z,12.10
2018-04-17T06:47:38.150Z,12.20
2018-04-17T06:50:06.175Z,12.30
2018-04-17T06:52:34.324Z,12.30
2018-04-17T06:55:02.589Z,12.40
2018-04-17T06:57:30.843Z,12.40
2018-04-17T06:59:59.656Z,12.50
2018-04-17T07:02:28.502Z,12.50
2018-04-17T07:04:56.681Z,12.60
2018-04-17T07:07:24.794Z,12.60
2018-04-17T07:09:52.917Z,12.70
2018-04-17T07:12:21.059Z,12.70
2018-04-17T07:14:53.063Z,12.80
2018-04-17T07:17:21.162Z,12.90
2018-04-17T07:19:50.227Z,12.90
2018-04-17T07:22:19.235Z,13.00
2018-04-17T07:24:47.433Z,13.10
2018-04-17T07:27:15.655Z,13.10
2018-04-17T07:29:43.801Z,13.20
2018-04-17T07:32:13.079Z,13.30
2018-04-17T07:34:45.923Z,13.40
2018-04-17T07:37:14.088Z,13.50
2018-04-17T07:39:42.187Z,13.60
2018-04-17T07:42:10.286Z,13.60
2018-04-17T07:44:38.397Z,13.70
2018-04-17T07:47:30.805Z,13.80
2018-04-17T07:49:58.932Z,13.80
2018-04-17T07:52:27.059Z,13.90
2018-04-17T07:54:55.176Z,14.00
2018-04-17T07:57:23.272Z,14.10
2018-04-17T07:59:51.398Z,14.10
2018-04-17T08:02:19.538Z,14.20
2018-04-17T08:04:47.660Z,14.20
2018-04-17T08:07:15.865Z,14.30
2018-04-17T08:09:43.980Z,14.30
2018-04-17T08:12:12.095Z,14.30
2018-04-17T08:14:40.200Z,14.40
2018-04-17T08:17:08.313Z,14.40
2018-04-17T08:19:36.406Z,14.50
2018-04-17T08:22:04.512Z,14.60
2018-04-17T08:24:32.634Z,14.70
2018-04-17T08:27:00.881Z,14.70
2018-04-17T08:29:29.020Z,14.80
2018-04-17T08:31:57.110Z,14.90
2018-04-17T08:34:26.000Z,14.90
2018-04-17T08:36:54.173Z,15.00
2018-04-17T08:39:22.251Z,15.10
2018-04-17T08:41:50.344Z,15.10
2018-04-17T08:44:18.456Z,15.20
2018-04-17T08:46:46.562Z,15.20
2018-04-17T08:49:14.685Z,15.30
2018-04-17T08:51:42.812Z,15.40
2018-04-17T08:54:10.902Z,15.50
2018-04-17T08:56:39.023Z,15.50
2018-04-17T08:59:07.135Z,15.60
2018-04-17T09:01:35.319Z,15.70
2018-04-17T09:04:03.620Z,15.80
2018-04-17T09:06:31.848Z,15.90
2018-04-17T09:09:00.112Z,16.10
2018-04-17T09:11:28.352Z,16.20
2018-04-17T09:13:56.639Z,16.30
2018-04-17T09:16:24.867Z,16.40
2018-04-17T09:18:58.069Z,16.60
2018-04-17T09:21:26.169Z,16.80
2018-04-17T09:23:54.344Z,16.90
2018-04-17T09:26:22.450Z,17.10
2018-04-17T09:28:51.051Z,17.30
2018-04-17T09:31:19.198Z,17.50
2018-04-17T09:33:47.462Z,17.60
2018-04-17T09:36:15.797Z,17.80
2018-04-17T09:38:43.975Z,18.00
2018-04-17T09:41:12.124Z,18.20
2018-04-17T09:43:41.068Z,18.30
2018-04-17T09:46:09.162Z,18.50
2018-04-17T09:48:37.282Z,18.60
2018-04-17T09:51:05.396Z,18.80
2018-04-17T09:53:33.514Z,19.00
2018-04-17T09:56:01.646Z,19.30
2018-04-17T09:58:29.930Z,19.50
2018-04-17T10:00:58.799Z,19.70
2018-04-17T10:03:26.896Z,19.90
2018-04-17T10:05:55.055Z,20.00
2018-04-17T10:08:23.156Z,20.10
2018-04-17T10:10:52.052Z,20.20
2018-04-17T10:13:21.130Z,20.20
2018-04-17T10:15:49.260Z,20.30
2018-04-17T10:18:17.367Z,20.50
2018-04-17T10:20:45.540Z,20.70
2018-04-17T10:23:13.648Z,20.80
2018-04-17T10:25:42.514Z,21.00
2018-04-17T10:28:11.462Z,21.20
2018-04-17T10:30:39.559Z,21.40
2018-04-17T10:33:07.659Z,21.60
2018-04-17T10:35:35.758Z,21.80
2018-04-17T10:38:03.875Z,22.00
2018-04-17T10:40:31.968Z,22.30
2018-04-17T10:43:00.083Z,22.50
2018-04-17T10:45:28.205Z,22.70
2018-04-17T10:47:56.287Z,22.90
2018-04-17T10:50:24.389Z,23.10
2018-04-17T10:52:52.495Z,23.30
2018-04-17T10:55:20.647Z,23.50
2018-04-17T10:57:48.780Z,23.70
2018-04-17T11:00:16.892Z,23.90
2018-04-17T11:02:45.065Z,24.00
2018-04-17T11:05:13.214Z,24.10
2018-04-17T11:07:41.352Z,24.20
2018-04-17T11:10:09.481Z,24.30
2018-04-17T11:12:37.654Z,24.40
2018-04-17T11:15:05.748Z,24.50
2018-04-17T11:17:33.854Z,24.60
2018-04-17T11:20:02.052Z,24.70
2018-04-17T11:22:30.285Z,24.80
2018-04-17T11:24:58.645Z,25.00
2018-04-17T11:27:26.818Z,25.10
2018-04-17T11:29:55.054Z,25.30
2018-04-17T11:32:23.940Z,25.40
2018-04-17T11:34:52.035Z,25.50
2018-04-17T11:37:20.148Z,25.60
2018-04-17T11:39:48.270Z,25.80
2018-04-17T11:42:16.355Z,25.90
2018-04-17T11:44:45.320Z,26.00
2018-04-17T11:47:13.424Z,26.10
2018-04-17T11:49:41.606Z,26.20
2018-04-17T11:52:09.725Z,26.40
2018-04-17T11:54:37.835Z,26.40
2018-04-17T11:57:06.037Z,26.40
2018-04-17T11:59:34.192Z,26.30
2018-04-17T12:02:02.315Z,26.10
2018-04-17T12:04:30.596Z,25.80
2018-04-17T12:06:58.716Z,25.40
2018-04-17T12:09:26.809Z,25.10
2018-04-17T12:11:54.941Z,24.80
2018-04-17T12:14:23.404Z,24.50
2018-04-17T12:16:51.523Z,24.40
2018-04-17T12:19:19.657Z,24.40
2018-04-17T12:21:47.757Z,24.50
2018-04-17T12:24:15.876Z,24.70
2018-04-17T12:26:44.004Z,24.90
2018-04-17T12:29:12.176Z,25.10
2018-04-17T12:31:40.318Z,25.30
2018-04-17T12:34:09.188Z,25.50
2018-04-17T12:36:37.312Z,25.80
2018-04-17T12:39:06.361Z,26.00
2018-04-17T12:41:35.292Z,26.30
2018-04-17T12:44:03.393Z,26.60
2018-04-17T12:46:31.556Z,26.90
2018-04-17T12:48:59.656Z,27.10
2018-04-17T12:51:27.757Z,27.10
2018-04-17T12:53:56.636Z,26.90
2018-04-17T12:56:25.206Z,26.70
2018-04-17T12:58:53.327Z,26.40
2018-04-17T13:01:21.438Z,26.20
2018-04-17T13:03:49.580Z,25.90
2018-04-17T13:06:17.710Z,25.60
2018-04-17T13:08:45.871Z,25.50
2018-04-17T13:11:13.982Z,25.50
2018-04-17T13:13:42.084Z,25.40
2018-04-17T13:16:10.267Z,25.40
2018-04-17T13:18:38.380Z,25.20
2018-04-17T13:21:06.495Z,25.00
2018-04-17T13:23:34.594Z,24.80
2018-04-17T13:26:02.707Z,24.70
2018-04-17T13:28:30.851Z,25.20
2018-04-17T13:30:58.969Z,26.10
2018-04-17T13:33:27.101Z,27.20
2018-04-17T13:35:55.217Z,28.30
2018-04-17T13:38:23.307Z,29.30
2018-04-17T13:40:51.430Z,30.00
2018-04-17T13:43:19.623Z,30.70
2018-04-17T13:45:47.736Z,31.40
2018-04-17T13:48:15.922Z,32.00
2018-04-17T13:50:44.443Z,32.40
2018-04-17T13:53:12.606Z,32.80
2018-04-17T13:55:40.723Z,33.20
2018-04-17T13:58:08.886Z,33.50
2018-04-17T14:00:37.021Z,33.70
2018-04-17T14:03:05.111Z,33.80
2018-04-17T14:05:33.833Z,33.80
2018-04-17T14:08:01.984Z,33.80
2018-04-17T14:10:30.179Z,33.80
2018-04-17T14:12:58.351Z,33.80
2018-04-17T14:15:26.615Z,33.70
2018-04-17T14:17:54.807Z,33.70
2018-04-17T14:20:22.927Z,33.70
2018-04-17T14:22:51.051Z,33.70
2018-04-17T14:25:19.154Z,33.70
2018-04-17T14:27:48.030Z,33.70
2018-04-17T14:30:16.138Z,33.80
2018-04-17T14:32:44.318Z,33.80
2018-04-17T14:35:12.448Z,33.80
2018-04-17T14:37:40.570Z,33.80
2018-04-17T14:40:08.679Z,33.80
2018-04-17T14:42:36.815Z,33.80
2018-04-17T14:45:04.921Z,33.90
2018-04-17T14:47:33.045Z,33.90
2018-04-17T14:50:01.905Z,34.00
2018-04-17T14:52:30.032Z,34.00
2018-04-17T14:54:58.133Z,34.10
2018-04-17T14:57:26.241Z,34.20
2018-04-17T14:59:54.361Z,34.40
2018-04-17T15:02:22.478Z,34.60
2018-04-17T15:04:50.609Z,34.90
2018-04-17T15:07:18.819Z,35.20
2018-04-17T15:09:47.015Z,35.50
2018-04-17T15:12:15.108Z,35.80
2018-04-17T15:14:43.213Z,36.00
2018-04-17T15:17:11.311Z,36.10
2018-04-17T15:19:39.427Z,36.30
2018-04-17T15:22:07.532Z,36.40
2018-04-17T15:24:35.709Z,36.50
2018-04-17T15:27:03.827Z,36.50
2018-04-17T15:29:32.716Z,36.60
2018-04-17T15:32:00.836Z,36.60
2018-04-17T15:34:28.936Z,36.70
2018-04-17T15:36:57.764Z,36.70
2018-04-17T15:39:26.641Z,36.60
2018-04-17T15:41:54.731Z,36.60
2018-04-17T15:44:22.857Z,36.60
2018-04-17T15:46:50.967Z,36.50
2018-04-17T15:49:19.091Z,36.50
2018-04-17T15:51:47.205Z,36.40
2018-04-17T15:54:15.341Z,36.30
2018-04-17T15:56:43.451Z,36.20
2018-04-17T15:59:11.587Z,36.10
2018-04-17T16:01:40.475Z,35.90
2018-04-17T16:04:08.595Z,35.70
2018-04-17T16:06:36.727Z,35.40
2018-04-17T16:09:04.867Z,35.20
2018-04-17T16:11:32.967Z,34.80
2018-04-17T16:14:01.062Z,34.40
2018-04-17T16:16:29.184Z,33.80
2018-04-17T16:18:57.312Z,33.10
2018-04-17T16:21:25.460Z,32.30
2018-04-17T16:23:53.562Z,31.50
2018-04-17T16:26:25.682Z,30.80
2018-04-17T16:28:53.775Z,30.10
2018-04-17T16:31:21.894Z,29.40
2018-04-17T16:33:50.039Z,28.70
2018-04-17T16:36:18.138Z,28.10
2018-04-17T16:38:46.262Z,27.50
2018-04-17T16:41:14.393Z,26.90
2018-04-17T16:43:44.459Z,26.40
2018-04-17T16:46:12.757Z,26.00
2018-04-17T16:48:41.670Z,25.60
2018-04-17T16:51:09.803Z,25.20
2018-04-17T16:53:38.627Z,24.90
2018-04-17T16:56:06.755Z,24.60
2018-04-17T16:58:34.873Z,24.20
2018-04-17T17:01:03.023Z,23.90
2018-04-17T17:03:31.775Z,23.70
2018-04-17T17:05:59.888Z,23.30
2018-04-17T17:08:27.982Z,23.00
2018-04-17T17:10:56.119Z,22.80
2018-04-17T17:13:24.255Z,22.50
2018-04-17T17:15:52.381Z,22.30
2018-04-17T17:18:24.450Z,22.10
2018-04-17T17:20:53.337Z,21.80
2018-04-17T17:23:22.215Z,21.60
2018-04-17T17:25:59.723Z,21.30
2018-04-17T17:28:28.586Z,21.10
2018-04-17T17:30:56.779Z,21.00
2018-04-17T17:33:24.938Z,20.80
2018-04-17T17:35:53.164Z,20.60
2018-04-17T17:38:21.294Z,20.50
2018-04-17T17:40:49.424Z,20.30
2018-04-17T17:43:17.562Z,20.20
2018-04-17T17:45:46.431Z,20.00
2018-04-17T17:48:14.544Z,19.90
2018-04-17T17:50:43.140Z,19.70
2018-04-17T17:53:11.255Z,19.50
2018-04-17T17:55:39.366Z,19.30
2018-04-17T17:58:07.930Z,19.00
2018-04-17T18:00:36.960Z,18.80
2018-04-17T18:03:05.088Z,18.50
2018-04-17T18:05:33.216Z,18.30
2018-04-17T18:08:01.337Z,18.10
2018-04-17T18:10:29.711Z,17.90
2018-04-17T18:12:59.377Z,17.70
2018-04-17T18:15:27.532Z,17.50
2018-04-17T18:17:55.654Z,17.30
2018-04-17T18:20:23.820Z,17.10
2018-04-17T18:22:51.943Z,16.90
2018-04-17T18:25:20.053Z,16.70
2018-04-17T18:27:48.196Z,16.50
2018-04-17T18:30:38.333Z,16.30
2018-04-17T18:33:06.453Z,16.10
2018-04-17T18:35:34.759Z,16.00
2018-04-17T18:38:02.906Z,15.80
2018-04-17T18:40:31.063Z,15.60
2018-04-17T18:43:22.341Z,15.50
2018-04-17T18:45:50.795Z,15.30
2018-04-17T18:48:18.905Z,15.20
2018-04-17T18:50:46.989Z,15.00
2018-04-17T18:53:15.467Z,14.80
2018-04-17T18:55:44.338Z,14.70
2018-04-17T18:58:12.484Z,14.60
2018-04-17T19:00:40.668Z,14.50
2018-04-17T19:03:08.779Z,14.40
2018-04-17T19:05:37.851Z,14.30
2018-04-17T19:08:06.155Z,14.20
2018-04-17T19:10:35.054Z,14.00
2018-04-17T19:13:03.150Z,13.90
2018-04-17T19:15:31.283Z,13.80
2018-04-17T19:17:59.394Z,13.70
2018-04-17T19:20:27.589Z,13.60
2018-04-17T19:22:55.708Z,13.50
2018-04-17T19:25:23.850Z,13.40
2018-04-17T19:27:52.026Z,13.40
2018-04-17T19:30:20.291Z,13.20
2018-04-17T19:32:48.419Z,13.10
2018-04-17T19:35:16.583Z,13.00
2018-04-17T19:37:45.007Z,12.90
2018-04-17T19:40:13.129Z,12.90
2018-04-17T19:42:41.244Z,12.80
2018-04-17T19:45:26.460Z,12.70
2018-04-17T19:47:54.770Z,12.60
2018-04-17T19:50:23.121Z,12.60
2018-04-17T19:52:51.296Z,12.50
2018-04-17T19:55:20.162Z,12.40
2018-04-17T19:57:48.302Z,12.40
2018-04-17T20:00:16.404Z,12.30
2018-04-17T20:02:44.528Z,12.20
2018-04-17T20:05:12.645Z,12.10
2018-04-17T20:07:40.768Z,12.10
2018-04-17T20:10:08.884Z,12.00
2018-04-17T20:12:37.004Z,12.00
2018-04-17T20:15:05.170Z,11.90
2018-04-17T20:17:33.288Z,11.80
2018-04-17T20:20:01.422Z,11.80
2018-04-17T20:22:29.545Z,11.70
2018-04-17T20:24:57.661Z,11.70
2018-04-17T20:27:26.532Z,11.60
2018-04-17T20:29:54.642Z,11.50
2018-04-17T20:32:23.543Z,11.40
2018-04-17T20:34:51.651Z,11.40
2018-04-17T20:37:19.790Z,11.30
2018-04-17T20:39:47.888Z,11.30
2018-04-17T20:42:16.027Z,11.30
2018-04-17T20:44:45.527Z,11.20
2018-04-17T20:47:13.647Z,11.20
2018-04-17T20:49:41.766Z,11.20
2018-04-17T20:52:09.901Z,11.20
2018-04-17T20:54:38.057Z,11.10
2018-04-17T20:57:06.188Z,11.10
2018-04-17T20:59:35.525Z,11.10
2018-04-17T21:02:03.626Z,11.00
2018-04-17T21:04:31.827Z,11.00
2018-04-17T21:07:00.274Z,11.00
2018-04-17T21:09:28.384Z,10.90
2018-04-17T21:11:57.076Z,10.90
2018-04-17T21:14:25.440Z,10.80
2018-04-17T21:16:53.632Z,10.70
2018-04-17T21:19:21.906Z,10.70
2018-04-17T21:21:50.140Z,10.60
2018-04-17T21:24:18.261Z,10.60
2018-04-17T21:26:46.470Z,10.50
2018-04-17T21:29:14.740Z,10.50
2018-04-17T21:31:42.916Z,10.40
2018-04-17T21:34:11.831Z,10.40
2018-04-17T21:36:40.009Z,10.30
2018-04-17T21:39:10.837Z,10.30
2018-04-17T21:41:38.945Z,10.20
2018-04-17T21:44:07.133Z,10.10
2018-04-17T21:46:35.391Z,10.10
2018-04-17T21:49:04.697Z,10.00
2018-04-17T21:51:32.837Z,10.00
2018-04-17T21:54:00.938Z,9.90
2018-04-17T21:56:29.799Z,9.90
2018-04-17T21:58:57.934Z,9.80
2018-04-17T22:01:29.730Z,9.80
2018-04-17T22:03:57.846Z,9.80
2018-04-17T22:06:25.957Z,9.70
2018-04-17T22:08:54.114Z,9.70
2018-04-17T22:11:22.580Z,9.60
2018-04-17T22:13:51.702Z,9.60
2018-04-17T22:29:14.831Z,8.80
2018-04-17T22:31:47.175Z,8.70
2018-04-17T22:34:17.703Z,8.70
2018-04-17T22:36:45.841Z,8.70
2018-04-17T22:39:13.943Z,8.70
2018-04-17T22:41:42.072Z,8.80
2018-04-17T22:44:10.293Z,8.80
2018-04-17T22:46:39.145Z,8.80
2018-04-17T22:49:07.262Z,8.80
2018-04-17T22:51:35.414Z,8.80
2018-04-17T22:54:03.532Z,8.80
2018-04-17T23:06:11.649Z,8.40
2018-04-17T23:08:39.762Z,8.30
2018-04-17T23:11:07.847Z,8.30
2018-04-17T23:13:36.015Z,8.30
2018-04-17T23:16:04.099Z,8.30
2018-04-17T23:18:32.174Z,8.30
2018-04-17T23:21:00.283Z,8.40
2018-04-17T23:23:28.388Z,8.40
2018-04-17T23:25:56.487Z,8.40
2018-04-17T23:28:24.654Z,8.40
2018-04-17T23:30:52.759Z,8.30
2018-04-17T23:33:20.861Z,8.30
2018-04-17T23:35:48.960Z,8.30
2018-04-17T23:38:17.073Z,8.30
2018-04-17T23:40:45.178Z,8.30
2018-04-17T23:43:13.294Z,8.30
2018-04-17T23:45:41.497Z,8.30
2018-04-17T23:48:09.734Z,8.20
2018-04-17T23:50:37.975Z,8.20
2018-04-17T23:53:06.510Z,8.20
2018-04-17T23:55:34.625Z,8.20
2018-04-17T23:58:04.454Z,8.20
